Time;durP1;ratioP1;P1;durP2;ratioP2;P2;SDS_P1;SDS_P2;PMS_P1;PMS_P2;Temp;Humidity;BMP_temperature;BMP_pressure;BME280_temperature;BME280_humidity;BME280_pressure;Samples;Min_cycle;Max_cycle;Signal;HPM_P1;HPM_P2
2022/01/04 00:02:19;;;;;;;0.40;0.40;;;12.50;99.90;;;;;;5117663;27;20051;-81
2022/01/04 00:04:45;;;;;;;0.65;0.50;;;12.40;99.90;;;;;;5134690;27;20090;-81
2022/01/04 00:07:11;;;;;;;1.85;0.98;;;12.60;99.90;;;;;;5139075;27;20038;-82
2022/01/04 00:09:42;;;;;;;0.40;0.40;;;12.40;99.90;;;;;;5122570;27;20595;-82
2022/01/04 00:14:56;;;;;;;0.40;0.40;;;12.50;99.90;;;;;;5135773;27;20095;-82
2022/01/04 00:17:34;;;;;;;1.38;0.93;;;12.40;99.90;;;;;;5121065;27;20053;-81
2022/01/04 00:20:07;;;;;;;0.40;0.40;;;12.70;99.90;;;;;;5132722;27;20046;-81
2022/01/04 00:22:39;;;;;;;0.50;0.50;;;12.40;99.90;;;;;;5110883;27;20524;-81
2022/01/04 00:25:10;;;;;;;2.55;0.68;;;12.30;99.90;;;;;;5118669;27;20413;-81
2022/01/04 00:27:37;;;;;;;1.17;0.80;;;12.30;99.90;;;;;;5116550;27;20071;-81
2022/01/04 00:30:11;;;;;;;1.00;0.70;;;12.40;99.90;;;;;;5128370;27;21326;-81
2022/01/04 00:32:39;;;;;;;0.45;0.40;;;12.40;99.90;;;;;;5121379;27;20078;-81
2022/01/04 00:35:17;;;;;;;0.57;0.40;;;12.40;99.90;;;;;;5118570;27;20039;-81
2022/01/04 00:37:56;;;;;;;1.52;0.55;;;12.50;99.90;;;;;;5121280;27;20046;-81
2022/01/04 00:40:24;;;;;;;0.98;0.93;;;12.50;99.90;;;;;;5136035;27;20092;-81
2022/01/04 00:42:55;;;;;;;0.98;0.73;;;12.40;99.90;;;;;;5119439;27;20050;-81
2022/01/04 00:45:26;;;;;;;0.95;0.52;;;12.40;99.90;;;;;;5112332;27;20043;-81
2022/01/04 00:50:38;;;;;;;1.67;0.90;;;12.40;99.90;;;;;;5135891;27;20092;-81
2022/01/04 00:53:08;;;;;;;5.85;0.88;;;12.30;99.90;;;;;;5114617;27;20043;-81
2022/01/04 00:55:34;;;;;;;0.73;0.50;;;12.30;99.90;;;;;;5142710;27;20078;-81
2022/01/04 00:58:04;;;;;;;1.92;0.90;;;12.40;99.90;;;;;;5115041;27;20041;-81
2022/01/04 01:00:33;;;;;;;1.63;1.35;;;12.40;99.90;;;;;;5117061;27;20055;-80
2022/01/04 01:02:59;;;;;;;1.17;0.82;;;12.30;99.90;;;;;;5117707;27;20062;-81
2022/01/04 01:05:26;;;;;;;4.00;1.52;;;12.40;99.90;;;;;;5116603;27;20534;-80
2022/01/04 01:07:54;;;;;;;1.33;1.02;;;12.40;99.90;;;;;;5122379;27;20847;-81
2022/01/04 01:10:49;;;;;;;1.70;1.05;;;12.40;99.90;;;;;;5133858;27;20051;-80
2022/01/04 01:13:16;;;;;;;1.25;0.77;;;13.00;99.90;;;;;;5115209;27;20051;-80
2022/01/04 01:15:49;;;;;;;1.83;0.82;;;12.40;99.90;;;;;;5115445;27;20035;-80
2022/01/04 01:18:23;;;;;;;1.48;1.38;;;12.40;99.90;;;;;;5115584;27;20046;-80
2022/01/04 01:20:54;;;;;;;5.70;1.20;;;12.40;99.90;;;;;;5114996;27;20055;-81
2022/01/04 01:23:28;;;;;;;1.33;0.80;;;12.00;99.90;;;;;;5115932;27;20840;-80
2022/01/04 01:25:54;;;;;;;1.17;0.90;;;11.60;99.90;;;;;;5132701;27;20035;-80
2022/01/04 01:28:20;;;;;;;1.10;0.88;;;12.40;99.90;;;;;;5119561;27;20031;-80
2022/01/04 01:31:07;;;;;;;1.55;1.10;;;12.40;99.90;;;;;;5116350;27;20035;-80
2022/01/04 01:33:33;;;;;;;1.10;1.00;;;12.40;99.90;;;;;;5116259;27;20047;-80
2022/01/04 01:36:03;;;;;;;1.10;0.80;;;12.00;99.90;;;;;;5112300;27;20039;-80
2022/01/04 01:38:34;;;;;;;4.35;1.13;;;12.40;99.90;;;;;;5118758;27;20092;-80
2022/01/04 01:41:10;;;;;;;1.15;0.82;;;12.20;99.90;;;;;;5117399;27;20039;-80
2022/01/04 01:43:38;;;;;;;0.80;0.63;;;12.40;99.90;;;;;;5113716;27;20159;-80
2022/01/04 01:46:07;;;;;;;1.65;0.82;;;12.40;99.90;;;;;;5117121;27;20043;-80
2022/01/04 01:48:38;;;;;;;0.80;0.80;;;12.20;99.90;;;;;;5116513;27;20039;-81
2022/01/04 01:51:04;;;;;;;4.30;0.83;;;12.70;99.90;;;;;;5140039;27;20877;-80
2022/01/04 01:53:33;;;;;;;0.95;0.85;;;12.00;99.90;;;;;;5110964;27;20346;-80
2022/01/04 01:56:04;;;;;;;1.27;0.88;;;12.40;99.90;;;;;;5125244;27;20038;-80
2022/01/04 01:58:30;;;;;;;1.25;0.98;;;12.60;99.90;;;;;;5122261;27;20050;-81
2022/01/04 02:01:01;;;;;;;0.75;0.70;;;12.40;99.90;;;;;;5113104;27;20059;-80
2022/01/04 02:03:30;;;;;;;1.30;0.90;;;12.40;99.90;;;;;;5111045;27;20047;-81
2022/01/04 02:06:05;;;;;;;1.08;0.88;;;12.30;99.90;;;;;;5121265;27;20528;-80
2022/01/04 02:08:37;;;;;;;1.70;0.98;;;12.30;99.90;;;;;;5126382;27;20404;-80
2022/01/04 02:11:06;;;;;;;1.27;0.88;;;12.40;99.90;;;;;;5117570;27;20054;-81
2022/01/04 02:13:35;;;;;;;0.90;0.70;;;12.40;99.90;;;;;;5117037;27;20496;-80
2022/01/04 02:16:02;;;;;;;1.40;0.68;;;12.40;99.90;;;;;;5116511;27;20046;-80
2022/01/04 02:18:32;;;;;;;1.73;0.95;;;12.40;99.90;;;;;;5115515;27;20039;-80
2022/01/04 02:21:09;;;;;;;2.28;1.20;;;12.30;99.90;;;;;;5116189;27;20052;-80
2022/01/04 02:23:38;;;;;;;0.77;0.73;;;12.40;99.90;;;;;;5119314;27;20372;-80
2022/01/04 02:26:04;;;;;;;1.20;0.75;;;12.30;99.90;;;;;;5123462;27;20070;-80
2022/01/04 02:28:31;;;;;;;0.70;0.70;;;12.40;99.90;;;;;;5113700;27;20053;-80
2022/01/04 02:30:58;;;;;;;0.77;0.77;;;12.50;99.90;;;;;;5134906;27;20040;-80
2022/01/04 02:33:29;;;;;;;1.45;1.20;;;12.50;99.90;;;;;;5115783;27;20553;-81
2022/01/04 02:36:00;;;;;;;0.55;0.55;;;11.90;99.90;;;;;;5117671;27;20102;-80
2022/01/04 02:38:26;;;;;;;2.17;1.17;;;12.50;99.90;;;;;;5118035;27;20948;-80
2022/01/04 02:40:55;;;;;;;1.58;1.02;;;13.10;99.90;;;;;;5135257;27;20120;-79
2022/01/04 02:43:21;;;;;;;1.40;0.73;;;12.40;99.90;;;;;;5108192;27;20163;-79
2022/01/04 02:45:47;;;;;;;1.13;0.85;;;12.40;99.90;;;;;;5120688;27;20039;-79
2022/01/04 02:48:16;;;;;;;1.77;0.98;;;12.40;99.90;;;;;;5145982;27;20435;-78
2022/01/04 02:50:44;;;;;;;1.95;1.10;;;12.40;99.90;;;;;;5117201;27;20043;-78
2022/01/04 02:53:15;;;;;;;1.20;0.68;;;12.50;99.90;;;;;;5117284;27;20082;-79
2022/01/04 02:55:47;;;;;;;1.90;0.98;;;12.50;99.90;;;;;;5117240;27;20039;-79
2022/01/04 02:58:16;;;;;;;0.88;0.75;;;12.50;99.90;;;;;;5121793;27;20058;-79
2022/01/04 03:01:02;;;;;;;2.00;1.00;;;12.20;99.90;;;;;;5109618;27;20637;-79
2022/01/04 03:03:32;;;;;;;1.48;0.75;;;12.50;99.90;;;;;;5115472;27;20047;-79
2022/01/04 03:06:00;;;;;;;1.50;0.60;;;12.50;99.90;;;;;;5114963;27;20048;-79
2022/01/04 03:08:27;;;;;;;1.40;0.55;;;12.50;99.90;;;;;;5123925;27;20428;-79
2022/01/04 03:10:53;;;;;;;1.13;0.60;;;12.50;99.90;;;;;;5115513;27;20035;-79
2022/01/04 03:13:19;;;;;;;0.65;0.60;;;12.40;99.90;;;;;;5118590;27;20089;-79
2022/01/04 03:15:53;;;;;;;0.63;0.40;;;12.50;99.90;;;;;;5114890;27;20035;-79
2022/01/04 03:18:27;;;;;;;0.63;0.50;;;12.60;99.90;;;;;;5117462;27;20039;-78
2022/01/04 03:20:57;;;;;;;1.23;0.88;;;12.50;99.90;;;;;;5115921;27;20047;-78
2022/01/04 03:23:26;;;;;;;1.50;0.82;;;12.50;99.90;;;;;;5117395;27;21045;-78
2022/01/04 03:25:53;;;;;;;0.57;0.52;;;12.50;99.90;;;;;;5113874;27;20051;-78
2022/01/04 03:28:21;;;;;;;0.35;0.30;;;12.50;99.90;;;;;;5120848;27;20071;-78
2022/01/04 03:30:47;;;;;;;0.90;0.30;;;12.60;99.90;;;;;;5118053;27;20040;-78
2022/01/04 03:33:12;;;;;;;1.95;0.50;;;12.60;99.90;;;;;;5115140;27;20077;-78
2022/01/04 03:35:45;;;;;;;1.13;0.50;;;12.50;99.90;;;;;;5115512;27;20455;-79
2022/01/04 03:38:14;;;;;;;0.52;0.25;;;12.60;99.90;;;;;;5139890;27;20100;-79
2022/01/04 03:40:43;;;;;;;0.40;0.40;;;12.60;99.90;;;;;;5113467;27;20043;-78
2022/01/04 03:43:21;;;;;;;0.50;0.40;;;12.60;99.90;;;;;;5117441;27;20207;-79
2022/01/04 03:45:48;;;;;;;1.02;0.40;;;12.60;99.90;;;;;;5113976;27;20039;-78
2022/01/04 03:48:14;;;;;;;1.10;1.10;;;12.60;99.90;;;;;;5111523;27;20239;-78
2022/01/04 03:50:40;;;;;;;1.50;0.40;;;12.60;99.90;;;;;;5115515;27;20525;-79
2022/01/04 03:53:06;;;;;;;1.23;0.50;;;12.60;99.90;;;;;;5133496;27;20050;-78
2022/01/04 03:55:35;;;;;;;0.75;0.43;;;12.60;99.90;;;;;;5107077;27;20036;-79
2022/01/04 03:58:04;;;;;;;0.65;0.50;;;12.60;99.90;;;;;;5120925;27;20055;-79
2022/01/04 04:00:33;;;;;;;0.70;0.40;;;12.60;99.90;;;;;;5108430;27;20051;-79
2022/01/04 04:10:01;;;;;;;0.10;0.10;;;12.50;99.90;;;;;;5076444;27;20147;-84
2022/01/04 04:12:55;;;;;;;0.10;0.10;;;12.00;99.90;;;;;;5084246;27;20044;-85
2022/01/04 04:15:48;;;;;;;0.10;0.10;;;11.80;99.90;;;;;;5083677;27;20085;-86
2022/01/04 04:18:47;;;;;;;1.65;0.10;;;11.30;99.90;;;;;;5079350;27;20036;-85
2022/01/04 04:21:30;;;;;;;0.20;0.20;;;11.10;99.90;;;;;;5084226;27;20603;-86
2022/01/04 04:24:19;;;;;;;0.55;0.20;;;11.10;99.90;;;;;;5080197;27;20131;-85
2022/01/04 04:26:57;;;;;;;0.17;0.17;;;10.90;99.90;;;;;;5081546;27;20131;-86
2022/01/04 04:29:23;;;;;;;0.10;0.10;;;11.00;99.90;;;;;;5084770;27;20060;-86
2022/01/04 04:32:26;;;;;;;0.10;0.10;;;10.80;99.90;;;;;;5094334;27;20179;-86
2022/01/04 04:35:40;;;;;;;0.10;0.10;;;10.50;99.90;;;;;;5074772;27;20596;-87
2022/01/04 04:38:29;;;;;;;0.10;0.10;;;10.50;99.90;;;;;;5018386;28;21087;-87
2022/01/04 04:41:48;;;;;;;0.08;0.08;;;10.70;99.90;;;;;;5038034;27;20094;-87
2022/01/04 04:45:04;;;;;;;0.10;0.10;;;10.50;99.90;;;;;;5118779;27;20476;-87
2022/01/04 04:48:07;;;;;;;0.10;0.10;;;10.50;99.90;;;;;;5085176;27;20545;-87
2022/01/04 04:53:57;;;;;;;0.10;0.10;;;10.50;99.90;;;;;;5108722;27;20131;-87
2022/01/04 04:56:42;;;;;;;0.10;0.10;;;10.70;99.90;;;;;;5113599;27;20175;-86
2022/01/04 04:59:40;;;;;;;0.17;0.17;;;10.40;99.90;;;;;;5116103;27;20059;-86
2022/01/04 05:02:53;;;;;;;;;;;;;;;;;;;;;
2022/01/04 05:05:29;;;;;;;4.97;0.50;;;10.30;99.90;;;;;;5117281;27;39454;-87
2022/01/04 05:11:34;;;;;;;0.10;0.10;;;10.60;99.90;;;;;;5118903;27;20532;-86
2022/01/04 05:14:24;;;;;;;0.10;0.10;;;10.20;99.90;;;;;;5123597;27;20187;-85
2022/01/04 05:17:36;;;;;;;0.70;0.68;;;10.10;99.90;;;;;;5130027;27;20051;-86
2022/01/04 05:20:12;;;;;;;0.20;0.20;;;10.20;99.90;;;;;;5127286;27;20103;-86
2022/01/04 05:23:23;;;;;;;0.25;0.13;;;10.20;99.90;;;;;;5124441;27;20059;-86
2022/01/04 05:29:36;;;;;;;0.20;0.20;;;10.50;99.90;;;;;;5114873;27;20055;-85
2022/01/04 05:32:27;;;;;;;0.20;0.20;;;10.10;99.90;;;;;;5119524;27;20035;-85
2022/01/04 05:35:10;;;;;;;0.30;0.30;;;10.30;99.90;;;;;;5116930;27;20040;-85
2022/01/04 05:40:39;;;;;;;0.20;0.20;;;10.80;99.90;;;;;;5114236;27;20067;-85
2022/01/04 05:43:13;;;;;;;0.55;0.25;;;9.80;99.90;;;;;;5117003;27;20127;-84
2022/01/04 05:45:55;;;;;;;0.40;0.20;;;10.00;99.90;;;;;;5115651;27;20067;-84
2022/01/04 05:48:28;;;;;;;0.90;0.43;;;10.00;99.90;;;;;;5118446;27;20164;-85
2022/01/04 05:51:21;;;;;;;0.17;0.17;;;10.00;99.90;;;;;;5109591;27;20100;-84
2022/01/04 05:54:00;;;;;;;0.22;0.22;;;10.80;99.90;;;;;;5113228;27;20095;-84
2022/01/04 05:56:32;;;;;;;0.38;0.38;;;10.00;99.90;;;;;;5118337;27;20050;-84
2022/01/04 05:59:09;;;;;;;;;;;9.80;99.90;;;;;;5120606;27;20039;-84
2022/01/04 06:01:40;;;;;;;0.10;0.10;;;10.00;99.90;;;;;;5119581;27;19967;-83
2022/01/04 06:04:10;;;;;;;0.10;0.10;;;10.00;99.90;;;;;;5140536;27;20106;-83
2022/01/04 06:06:36;;;;;;;0.20;0.20;;;10.50;99.90;;;;;;5114772;27;20070;-82
2022/01/04 06:09:02;;;;;;;0.13;0.13;;;10.00;99.90;;;;;;5121240;27;20139;-82
2022/01/04 06:17:26;;;;;;;0.22;0.22;;;10.00;99.90;;;;;;5131444;27;20086;-85
2022/01/04 06:19:51;;;;;;;0.10;0.10;;;9.90;99.90;;;;;;5114741;27;20050;-78
2022/01/04 06:22:52;;;;;;;0.13;0.13;;;9.90;99.90;;;;;;5132163;27;20420;-85
2022/01/04 06:25:21;;;;;;;0.30;0.30;;;10.10;99.90;;;;;;5115240;27;20078;-83
2022/01/04 06:27:51;;;;;;;0.10;0.10;;;10.00;99.90;;;;;;5132652;27;20737;-82
2022/01/04 06:30:25;;;;;;;0.10;0.10;;;9.90;99.90;;;;;;5116068;27;20141;-84
2022/01/04 06:33:17;;;;;;;0.55;0.22;;;10.00;99.90;;;;;;5116068;27;20043;-84
2022/01/04 06:36:07;;;;;;;0.20;0.20;;;10.00;99.90;;;;;;5123794;27;20051;-84
2022/01/04 06:38:38;;;;;;;0.22;0.22;;;9.90;99.90;;;;;;5118281;27;20121;-84
2022/01/04 06:41:19;;;;;;;0.22;0.22;;;10.00;99.90;;;;;;5136291;27;20054;-84
2022/01/04 06:43:56;;;;;;;0.45;0.30;;;10.00;99.90;;;;;;5122423;27;20035;-85
2022/01/04 06:46:31;;;;;;;0.80;0.30;;;9.70;99.90;;;;;;5117847;27;20975;-84
2022/01/04 06:49:09;;;;;;;0.30;0.30;;;10.00;99.90;;;;;;5117957;27;20075;-85
2022/01/04 06:51:49;;;;;;;0.15;0.15;;;9.90;99.90;;;;;;5140489;27;20059;-86
2022/01/04 06:54:34;;;;;;;0.17;0.17;;;10.00;99.90;;;;;;5122415;27;20037;-85
2022/01/04 06:57:04;;;;;;;0.15;0.15;;;9.50;99.90;;;;;;5119893;27;20079;-87
2022/01/04 06:59:35;;;;;;;0.25;0.25;;;10.00;99.90;;;;;;5135696;27;20043;-85
2022/01/04 07:02:12;;;;;;;1.08;0.32;;;10.00;99.90;;;;;;5138219;27;20048;-85
2022/01/04 07:04:40;;;;;;;0.60;0.40;;;10.00;99.90;;;;;;5122059;27;20048;-84
2022/01/04 07:07:37;;;;;;;0.30;0.30;;;10.10;99.90;;;;;;5140575;27;20102;-77
2022/01/04 07:11:04;;;;;;;;;;;;;;;;;;;;;
2022/01/04 07:17:08;;;;;;;0.30;0.30;;;10.70;99.90;;;;;;5117644;27;21218;-77
2022/01/04 07:19:44;;;;;;;0.40;0.40;;;9.70;99.90;;;;;;5113897;27;20055;-75
2022/01/04 07:22:36;;;;;;;0.47;0.43;;;10.20;99.90;;;;;;5115307;27;20131;-77
2022/01/04 07:28:18;;;;;;;0.77;0.50;;;10.20;99.90;;;;;;5128207;27;20154;-77
2022/01/04 07:31:04;;;;;;;2.43;0.50;;;10.20;99.90;;;;;;5114210;27;20566;-77
2022/01/04 07:33:49;;;;;;;4.70;0.52;;;10.30;99.90;;;;;;5112840;27;20274;-77
2022/01/04 07:53:36;;;;;;;1.38;0.70;;;10.70;99.90;;;;;;5109134;27;20062;-77
2022/01/04 07:56:46;;;;;;;1.02;0.73;;;10.30;99.90;;;;;;5115927;27;20455;-78
2022/01/04 07:59:39;;;;;;;1.08;0.70;;;10.30;99.90;;;;;;5121210;27;20124;-77
2022/01/04 08:02:48;;;;;;;2.22;0.77;;;10.40;99.90;;;;;;5120283;27;20039;-77
2022/01/04 08:05:43;;;;;;;3.38;2.00;;;10.30;99.90;;;;;;5061293;28;20151;-78
2022/01/04 08:09:28;;;;;;;1.52;1.17;;;9.90;99.90;;;;;;5046988;28;20090;-77
2022/01/04 08:12:24;;;;;;;6.13;2.35;;;10.40;99.90;;;;;;4989404;28;20081;-78
2022/01/04 08:22:41;;;;;;;3.92;1.50;;;10.20;99.90;;;;;;4934241;28;20509;-77
2022/01/04 08:25:13;;;;;;;6.28;1.85;;;10.60;99.90;;;;;;4940120;28;20198;-77
2022/01/04 08:27:42;;;;;;;5.03;1.80;;;10.40;99.90;;;;;;5063167;28;20047;-77
2022/01/04 08:30:13;;;;;;;2.80;1.75;;;10.30;99.90;;;;;;5094082;27;20047;-78
2022/01/04 08:32:42;;;;;;;2.70;1.40;;;10.30;99.90;;;;;;5121191;27;20040;-78
2022/01/04 08:35:11;;;;;;;2.70;1.35;;;10.30;99.90;;;;;;5124412;27;20047;-77
2022/01/04 08:37:54;;;;;;;0.98;0.75;;;10.30;99.90;;;;;;5118199;27;20032;-77
2022/01/04 08:40:33;;;;;;;0.70;0.65;;;10.30;99.90;;;;;;5118659;27;20055;-77
2022/01/04 08:43:05;;;;;;;0.85;0.63;;;10.30;99.90;;;;;;5115836;27;20585;-78
2022/01/04 08:45:41;;;;;;;0.88;0.55;;;10.30;99.90;;;;;;5090423;27;20044;-78
2022/01/04 08:48:17;;;;;;;1.33;0.90;;;10.20;99.90;;;;;;5073242;28;20623;-78
2022/01/04 08:50:48;;;;;;;1.80;1.20;;;10.20;99.90;;;;;;5092613;27;20032;-78
2022/01/04 08:53:20;;;;;;;0.85;0.65;;;10.20;99.90;;;;;;5073944;28;20045;-78
2022/01/04 08:56:02;;;;;;;;;;;10.20;99.90;;;;;;5070965;28;20585;-78
2022/01/04 08:58:36;;;;;;;0.40;0.40;;;10.30;99.90;;;;;;5107215;27;19927;-78
2022/01/04 09:01:07;;;;;;;1.55;0.93;;;10.20;99.90;;;;;;5070408;28;20053;-77
2022/01/04 09:03:56;;;;;;;2.20;1.20;;;10.30;99.90;;;;;;5054882;28;20087;-78
2022/01/04 09:06:28;;;;;;;0.70;0.70;;;10.40;99.90;;;;;;5054022;28;20097;-77
2022/01/04 09:08:57;;;;;;;0.47;0.47;;;10.20;99.90;;;;;;5084429;27;20041;-78
2022/01/04 09:11:26;;;;;;;0.73;0.30;;;10.40;99.90;;;;;;5054285;28;20252;-78
2022/01/04 09:14:11;;;;;;;0.82;0.40;;;10.40;99.90;;;;;;5069920;28;20082;-77
2022/01/04 09:19:26;;;;;;;1.00;0.73;;;10.30;99.90;;;;;;5073314;28;20652;-77
2022/01/04 09:21:58;;;;;;;0.50;0.40;;;10.30;99.90;;;;;;5055263;28;20052;-77
2022/01/04 09:24:30;;;;;;;2.17;0.57;;;10.40;99.90;;;;;;5085138;27;20040;-77
2022/01/04 09:27:07;;;;;;;0.57;0.50;;;10.40;99.90;;;;;;5059101;28;20135;-77
2022/01/04 09:29:45;;;;;;;1.90;0.93;;;10.30;99.90;;;;;;5073945;27;20099;-77
2022/01/04 09:32:24;;;;;;;0.65;0.50;;;10.30;99.90;;;;;;5099358;27;20036;-78
2022/01/04 09:34:56;;;;;;;1.35;0.70;;;10.30;99.90;;;;;;5099291;27;20032;-77
2022/01/04 09:37:24;;;;;;;1.35;0.93;;;10.30;99.90;;;;;;5094760;27;20422;-76
2022/01/04 09:39:52;;;;;;;1.20;0.75;;;9.80;99.90;;;;;;5097783;27;20048;-77
2022/01/04 09:42:27;;;;;;;0.75;0.60;;;10.30;99.90;;;;;;5100148;27;20094;-77
2022/01/04 09:44:59;;;;;;;0.75;0.73;;;11.00;99.90;;;;;;5096887;27;20062;-78
2022/01/04 09:47:28;;;;;;;1.77;0.40;;;10.30;99.90;;;;;;5095438;27;20047;-77
2022/01/04 09:50:00;;;;;;;0.38;0.38;;;10.30;99.90;;;;;;5097295;27;20055;-77
2022/01/04 09:52:32;;;;;;;0.55;0.55;;;10.80;99.90;;;;;;5098897;27;20088;-77
2022/01/04 09:55:08;;;;;;;0.75;0.47;;;11.30;99.90;;;;;;5096435;27;20040;-77
2022/01/04 09:57:40;;;;;;;0.68;0.45;;;10.00;99.90;;;;;;5095873;27;20043;-77
2022/01/04 10:00:15;;;;;;;0.60;0.32;;;10.40;99.90;;;;;;5127252;27;20055;-76
2022/01/04 10:02:49;;;;;;;0.95;0.60;;;10.30;99.90;;;;;;5118752;27;20631;-77
2022/01/04 10:05:27;;;;;;;1.55;0.63;;;9.80;99.90;;;;;;5117133;27;20058;-77
2022/01/04 10:08:10;;;;;;;0.63;0.47;;;10.40;99.90;;;;;;5123807;27;20133;-77
2022/01/04 10:10:45;;;;;;;0.60;0.47;;;10.40;99.90;;;;;;5140495;27;20035;-77
2022/01/04 10:13:29;;;;;;;0.90;0.40;;;10.50;99.90;;;;;;5123777;27;20052;-77
2022/01/04 10:16:00;;;;;;;0.95;0.73;;;10.50;99.90;;;;;;5126337;27;20139;-77
2022/01/04 10:18:36;;;;;;;0.63;0.40;;;10.60;99.90;;;;;;5118972;27;20059;-77
2022/01/04 10:21:02;;;;;;;1.65;0.70;;;9.80;99.90;;;;;;5115651;27;20043;-78
2022/01/04 10:26:45;;;;;;;1.95;0.73;;;10.60;99.90;;;;;;5132012;27;20130;-77
2022/01/04 10:29:41;;;;;;;1.17;0.82;;;10.60;99.90;;;;;;5124876;27;20130;-78
2022/01/04 10:32:20;;;;;;;1.42;0.93;;;10.60;99.90;;;;;;5120231;27;20050;-78
2022/01/04 10:34:51;;;;;;;3.15;1.35;;;10.40;99.90;;;;;;5123615;27;20062;-78
2022/01/04 10:37:40;;;;;;;1.27;0.95;;;10.50;99.90;;;;;;5123292;27;20043;-77
2022/01/04 10:40:25;;;;;;;0.77;0.75;;;10.50;99.90;;;;;;5136355;27;20043;-77
2022/01/04 10:43:09;;;;;;;2.05;0.95;;;10.60;99.90;;;;;;5122856;27;20035;-77
2022/01/04 10:45:41;;;;;;;0.55;0.55;;;10.80;99.90;;;;;;5124091;27;20054;-78
2022/01/04 10:48:13;;;;;;;1.15;0.75;;;10.70;99.90;;;;;;5123790;27;20038;-78
2022/01/04 10:50:50;;;;;;;;;;;11.00;99.90;;;;;;5117326;27;20051;-77
2022/01/04 10:53:40;;;;;;;1.67;1.17;;;10.40;99.90;;;;;;5142495;27;19948;-77
2022/01/04 10:56:15;;;;;;;1.92;1.00;;;10.70;99.90;;;;;;5123092;27;20595;-77
2022/01/04 10:59:06;;;;;;;2.08;1.25;;;10.80;99.90;;;;;;5120597;27;20035;-78
2022/01/04 11:01:45;;;;;;;1.45;1.02;;;10.70;99.90;;;;;;5115349;27;20054;-77
2022/01/04 11:04:23;;;;;;;0.75;0.65;;;10.70;99.90;;;;;;5119753;27;20117;-77
2022/01/04 11:07:01;;;;;;;0.60;0.60;;;10.60;99.90;;;;;;5140232;27;20038;-77
2022/01/04 11:09:36;;;;;;;1.27;0.77;;;10.80;99.90;;;;;;5132093;27;20047;-77
2022/01/04 11:12:08;;;;;;;1.33;0.85;;;10.80;99.90;;;;;;5130240;27;20043;-77
2022/01/04 11:14:35;;;;;;;;;;;10.90;99.90;;;;;;5121806;27;20043;-77
2022/01/04 11:17:01;;;;;;;1.27;0.85;;;10.90;99.90;;;;;;5119720;27;20455;-78
2022/01/04 11:19:30;;;;;;;0.70;0.70;;;10.90;99.90;;;;;;5139920;27;20508;-77
2022/01/04 11:22:08;;;;;;;1.20;1.08;;;10.90;99.90;;;;;;5140470;27;20333;-77
2022/01/04 11:24:48;;;;;;;1.90;1.08;;;10.80;99.90;;;;;;5122867;27;20555;-77
2022/01/04 11:27:17;;;;;;;1.45;0.90;;;11.10;99.90;;;;;;5123804;27;20045;-78
2022/01/04 11:30:10;;;;;;;;;;;;;;;;;;;;;
2022/01/04 11:32:55;;;;;;;3.38;1.08;;;11.10;99.90;;;;;;5134652;27;43018;-77
2022/01/04 11:35:24;;;;;;;2.17;1.30;;;11.10;99.90;;;;;;5121336;27;20106;-77
2022/01/04 11:37:54;;;;;;;1.65;1.08;;;11.10;99.90;;;;;;5123714;27;20039;-77
2022/01/04 11:40:31;;;;;;;4.55;1.15;;;11.10;99.90;;;;;;5129959;27;20046;-78
2022/01/04 11:42:57;;;;;;;1.98;0.88;;;10.70;99.90;;;;;;5120635;27;20050;-78
2022/01/04 11:45:49;;;;;;;3.05;1.10;;;11.40;99.90;;;;;;5121119;27;20039;-77
2022/01/04 11:49:05;;;;;;;2.15;1.20;;;11.10;99.90;;;;;;5123143;27;20619;-77
2022/01/04 11:51:41;;;;;;;1.75;1.10;;;11.10;99.90;;;;;;5140066;27;20074;-77
2022/01/04 11:54:36;;;;;;;2.60;1.10;;;11.10;99.90;;;;;;5141371;27;20031;-78
2022/01/04 11:57:16;;;;;;;3.05;1.60;;;11.10;99.90;;;;;;5118453;27;20040;-78
2022/01/04 11:59:50;;;;;;;1.77;0.85;;;11.00;99.90;;;;;;5131970;27;20652;-77
2022/01/04 12:02:35;;;;;;;2.85;1.20;;;11.00;99.90;;;;;;5125060;27;20689;-78
2022/01/04 12:05:28;;;;;;;2.25;1.30;;;10.80;99.90;;;;;;5116910;27;20069;-77
2022/01/04 12:08:22;;;;;;;2.70;1.50;;;10.90;99.90;;;;;;5115378;27;20123;-77
2022/01/04 12:10:59;;;;;;;2.10;1.17;;;11.40;99.90;;;;;;5115007;27;20081;-78
2022/01/04 12:13:54;;;;;;;1.75;1.13;;;10.90;99.90;;;;;;5119282;27;20097;-77
2022/01/04 12:16:42;;;;;;;1.60;0.90;;;10.20;99.90;;;;;;5115319;27;20050;-77
2022/01/04 12:19:42;;;;;;;3.05;0.77;;;11.10;99.90;;;;;;5134644;27;20122;-77
2022/01/04 12:22:31;;;;;;;1.90;1.35;;;10.90;99.90;;;;;;5119665;27;20035;-77
2022/01/04 12:25:08;;;;;;;3.67;1.33;;;10.70;99.90;;;;;;5120011;27;20146;-78
2022/01/04 12:27:57;;;;;;;3.10;1.42;;;11.10;99.90;;;;;;5117457;27;20595;-77
2022/01/04 12:30:30;;;;;;;2.60;1.48;;;10.90;99.90;;;;;;5116876;27;20869;-77
2022/01/04 12:33:33;;;;;;;3.15;1.23;;;11.20;99.90;;;;;;5120335;27;20047;-77
2022/01/04 12:36:29;;;;;;;2.67;1.20;;;11.20;99.90;;;;;;5123672;27;20224;-77
2022/01/04 12:39:08;;;;;;;1.98;1.58;;;10.90;99.90;;;;;;5117494;27;20047;-78
2022/01/04 12:41:40;;;;;;;4.78;1.25;;;11.40;99.90;;;;;;5123759;27;20664;-77
2022/01/04 12:44:16;;;;;;;3.72;1.30;;;11.40;99.90;;;;;;5117461;27;20096;-78
2022/01/04 12:46:54;;;;;;;3.47;1.10;;;11.40;99.90;;;;;;5114268;27;20043;-78
2022/01/04 12:49:28;;;;;;;2.13;1.10;;;10.90;99.90;;;;;;5132381;27;20044;-78
2022/01/04 12:52:09;;;;;;;4.82;1.02;;;11.60;99.90;;;;;;5142901;27;20043;-77
2022/01/04 12:54:47;;;;;;;2.38;1.15;;;11.40;99.90;;;;;;5135016;27;20798;-77
2022/01/04 12:57:29;;;;;;;1.95;1.23;;;11.40;99.90;;;;;;5121691;27;20088;-77
2022/01/04 13:00:23;;;;;;;3.22;0.90;;;11.30;99.90;;;;;;5141363;27;20051;-77
2022/01/04 13:02:59;;;;;;;1.70;1.35;;;11.30;99.90;;;;;;5138049;27;20112;-77
2022/01/04 13:05:28;;;;;;;4.43;1.70;;;11.30;99.90;;;;;;5123279;27;20134;-78
2022/01/04 13:08:49;;;;;;;2.75;1.38;;;11.50;99.90;;;;;;5122074;27;20028;-77
2022/01/04 13:11:21;;;;;;;1.83;1.02;;;11.30;99.90;;;;;;5102499;27;20048;-77
2022/01/04 13:14:12;;;;;;;2.20;1.23;;;11.30;99.90;;;;;;5116997;27;20095;-78
2022/01/04 13:16:48;;;;;;;3.20;1.48;;;11.30;99.90;;;;;;5119078;27;20119;-78
2022/01/04 13:19:27;;;;;;;2.35;1.10;;;11.30;99.90;;;;;;5124327;27;20142;-77
2022/01/04 13:22:14;;;;;;;1.77;1.10;;;11.40;99.90;;;;;;5120524;27;20055;-77
2022/01/04 13:24:43;;;;;;;2.58;1.20;;;11.40;99.90;;;;;;5141366;27;20080;-84
2022/01/04 13:27:31;;;;;;;3.30;1.40;;;11.40;99.90;;;;;;5123205;27;20035;-84
2022/01/04 13:30:16;;;;;;;3.72;1.73;;;11.40;99.90;;;;;;5126611;27;20127;-84
2022/01/04 13:33:11;;;;;;;3.47;1.25;;;11.60;99.90;;;;;;5123912;27;20051;-84
2022/01/04 13:35:42;;;;;;;1.60;1.00;;;11.30;99.90;;;;;;5132214;27;20042;-84
2022/01/04 13:38:22;;;;;;;3.38;1.30;;;11.20;99.90;;;;;;5125427;27;20126;-84
2022/01/04 13:41:07;;;;;;;3.80;1.75;;;10.80;99.90;;;;;;5128043;27;20042;-84
2022/01/04 13:43:39;;;;;;;2.42;1.67;;;11.20;99.90;;;;;;5123247;27;20075;-84
2022/01/04 13:46:18;;;;;;;4.53;1.70;;;11.20;99.90;;;;;;5128929;27;20035;-84
2022/01/04 13:48:51;;;;;;;4.72;1.83;;;11.30;99.90;;;;;;5122078;27;20222;-84
2022/01/04 13:51:30;;;;;;;3.28;1.55;;;11.40;99.90;;;;;;5143173;27;20088;-84
2022/01/04 13:54:02;;;;;;;6.82;1.58;;;11.30;99.90;;;;;;5127064;27;20075;-84
2022/01/04 13:56:32;;;;;;;3.35;1.00;;;11.20;99.90;;;;;;5121430;27;20035;-84
2022/01/04 13:59:05;;;;;;;5.25;1.50;;;11.20;99.90;;;;;;5125433;27;20071;-84
2022/01/04 14:01:47;;;;;;;4.25;0.88;;;11.10;99.90;;;;;;5127868;27;20142;-84
2022/01/04 14:04:24;;;;;;;7.20;1.73;;;11.10;99.90;;;;;;5124939;27;20550;-84
2022/01/04 14:09:53;;;;;;;2.00;1.38;;;11.10;99.90;;;;;;5151592;27;20054;-84
2022/01/04 14:12:22;;;;;;;3.15;1.48;;;11.10;99.90;;;;;;5124684;27;20051;-83
2022/01/04 14:14:58;;;;;;;4.53;1.73;;;11.10;99.90;;;;;;5113498;27;20047;-85
2022/01/04 14:17:28;;;;;;;4.00;1.40;;;11.10;99.90;;;;;;5114136;27;20047;-82
2022/01/04 14:20:02;;;;;;;5.25;1.35;;;11.10;99.90;;;;;;5132896;27;20067;-84
2022/01/04 14:22:39;;;;;;;5.22;1.38;;;11.10;99.90;;;;;;5137500;27;20100;-82
2022/01/04 14:25:15;;;;;;;3.17;1.27;;;11.00;99.90;;;;;;5133901;27;20095;-82
2022/01/04 14:27:55;;;;;;;2.97;1.58;;;11.00;99.90;;;;;;5141500;27;20058;-82
2022/01/04 14:30:25;;;;;;;7.50;1.75;;;11.20;99.90;;;;;;5156715;27;20105;-82
2022/01/04 14:33:03;;;;;;;2.22;1.15;;;11.00;99.90;;;;;;5138119;27;21890;-82
2022/01/04 14:35:31;;;;;;;2.38;1.20;;;11.00;99.90;;;;;;5120046;27;20047;-83
2022/01/04 14:38:00;;;;;;;4.05;1.58;;;11.00;99.90;;;;;;5118238;27;20043;-83
2022/01/04 14:40:29;;;;;;;5.28;1.60;;;11.00;99.90;;;;;;5135846;27;20063;-83
2022/01/04 14:42:58;;;;;;;3.33;1.45;;;11.00;99.90;;;;;;5118714;27;20035;-82
2022/01/04 14:48:18;;;;;;;3.22;1.73;;;11.00;99.90;;;;;;5140106;27;20035;-82
2022/01/04 14:50:50;;;;;;;6.43;1.63;;;11.00;99.90;;;;;;5117828;27;21242;-82
2022/01/04 14:53:23;;;;;;;;;;;11.00;99.90;;;;;;5120676;27;20043;-82
2022/01/04 14:55:57;;;;;;;5.72;1.90;;;11.00;99.90;;;;;;5138065;27;19966;-83
2022/01/04 14:58:25;;;;;;;5.50;1.23;;;10.90;99.90;;;;;;5132326;27;20050;-82
2022/01/04 15:00:58;;;;;;;2.65;1.50;;;10.90;99.90;;;;;;5120261;27;20527;-82